• Join FlightAware (Why Join?)
  • Login
  • US Flag 
07:18PM EDT


 

Airport Tracker/Info


-or-


 

Live Flight TrackerFlight Track Log ✈ AAL1326 ✈ 17-Apr-2013 ✈ KORD - KFLL

Flight Track Log - Related Links

Times and Time Zones

All times are in EDT time to prevent confusion due to time zone crossing. See the AAL1326 flight status page for this flight to view local times or setup timezone preferences in your user account.

Time Position Orientation Groundspeed Altitude Reporting Facility
EDT Latitude Longitude Course Direction KTS MPH feet Rate Location/Type
11:36PM 41.9670 -87.9440 242° Southwest 203 234 2,000  Level FlightAware
11:37PM 41.9610 -87.9610 245° Southwest 208 239 2,500 1,860 Climbing FlightAware
11:37PM 41.9400 -87.9960 231° Southwest 251 289 3,400 2,280 Climbing FlightAware
11:38PM 41.9100 -88.0210 212° Southwest 271 312 4,800 2,580 Climbing FlightAware
11:38PM 41.8810 -88.0200 179° South 285 328 5,800 3,480 Climbing FlightAware
11:39PM 41.8380 -88.0160 176° South 276 318 8,000 4,200 Climbing FlightAware
11:39PM 41.8290 -88.0150 175° South 266 306 8,600 3,480 Climbing FlightAware
11:40PM 41.7770 -88.0100 176° South 263 303 11,200 3,360 Climbing FlightAware
11:40PM 41.7250 -88.0010 173° South 267 307 13,400 2,940 Climbing FlightAware
11:41PM 41.6680 -87.9910 173° South 275 316 15,400 1,800 Climbing FlightAware
11:42PM 41.6210 -87.9810 171° South 282 325 16,000 1,380 Climbing FlightAware
11:42PM 41.5660 -87.9690 171° South 284 327 17,300 1,500 Climbing FlightAware
11:43PM 41.5270 -87.9460 156° South 332 382 17,800 1,440 Climbing FlightAware
11:44PM 41.4780 -87.8790 134° Southeast 360 414 19,100 1,500 Climbing FlightAware
11:44PM 41.4300 -87.8140 135° Southeast 377 434 20,000 660 Climbing FlightAware
11:45PM 41.3760 -87.7510 139° Southeast 383 441 20,000 240 Level FlightAware
11:46PM 41.3210 -87.6860 138° Southeast 388 447 20,400 1,020 Climbing FlightAware
11:46PM 41.2650 -87.6330 145° Southeast 392 451 21,400 1,680 Climbing FlightAware
11:47PM 41.1930 -87.5860 154° Southeast 400 460 22,700 1,620 Climbing FlightAware
11:48PM 41.1180 -87.5360 153° Southeast 417 480 23,900 1,740 Climbing FlightAware
11:48PM 41.0500 -87.4800 148° Southeast 412 474 25,200 1,800 Climbing FlightAware
11:49PM 41.0190 -87.4740 172° South 402 463 25,600 1,380 Climbing FlightAware
11:49PM 40.9450 -87.4770 182° South 413 475 26,500 1,200 Climbing FlightAware
11:50PM 40.8550 -87.4810 182° South 428 493 27,300 960 Climbing FlightAware
11:51PM 40.7880 -87.4860 183° South 439 505 27,800 1,140 Climbing FlightAware
11:52PM 40.6560 -87.4840 179° South 451 519 29,200 1,800 Climbing FlightAware
11:52PM 40.5700 -87.4730 174° South 433 498 31,000 2,160 Climbing FlightAware
11:53PM 40.4950 -87.4650 175° South 425 489 32,100 1,500 Climbing FlightAware
11:54PM 40.4070 -87.4480 172° South 425 489 33,200 840 Climbing FlightAware
11:55PM 40.3190 -87.4170 165° South 442 509 33,400 600 Climbing FlightAware
11:55PM 40.2490 -87.3910 164° South 446 513 34,000 900 Climbing FlightAware
11:56PM 40.1530 -87.3570 165° South 448 516 34,700 780 Climbing FlightAware
11:57PM 40.0650 -87.3260 165° South 457 526 35,200 780 Climbing FlightAware
11:57PM 39.9900 -87.3000 165° South 457 526 35,800 840 Climbing FlightAware
11:58PM 39.8980 -87.2670 165° South 458 527 36,400 720 Climbing FlightAware
11:59PM 39.8120 -87.2370 165° South 459 528 36,900 420 Climbing FlightAware
11:59PM 39.7250 -87.2060 165° South 457 526 37,000 60 Climbing FlightAware
12:00AM 39.6360 -87.1760 165° South 455 524 37,000  Level FlightAware
12:01AM 39.5690 -87.1520 165° South 454 522 37,000  Level FlightAware
12:02AM 39.4650 -87.1170 165° South 454 522 37,000  Level FlightAware
12:02AM 39.3870 -87.0900 165° South 451 519 37,000  Level FlightAware
12:03AM 39.2980 -87.0590 165° South 448 516 37,000  Level FlightAware
12:04AM 39.2130 -87.0290 165° South 446 513 37,000  Level FlightAware
12:04AM 39.1350 -87.0030 166° South 449 517 37,000  Level FlightAware
12:05AM 39.0400 -86.9710 165° South 459 528 37,000  Level FlightAware
12:06AM 38.9590 -86.9430 165° South 458 527 37,000  Level FlightAware
12:06AM 38.8680 -86.9120 165° South 456 525 37,000  Level FlightAware
12:07AM 38.7870 -86.8840 165° South 456 525 37,000  Level FlightAware
12:08AM 38.7060 -86.8560 165° South 458 527 37,000  Level FlightAware
12:09AM 38.6120 -86.8250 166° South 459 528 37,000  Level FlightAware
12:09AM 38.5280 -86.7970 165° South 459 528 37,000  Level FlightAware
12:10AM 38.4450 -86.7690 165° South 456 525 37,000  Level FlightAware
12:11AM 38.3670 -86.7430 165° South 452 520 37,000  Level FlightAware
12:11AM 38.2770 -86.7120 165° South 446 513 37,000  Level FlightAware
12:12AM 38.1860 -86.6820 165° South 446 513 37,000  Level FlightAware
12:13AM 38.1060 -86.6550 165° South 445 512 37,000  Level FlightAware
12:13AM 38.0250 -86.6280 165° South 447 514 37,000  Level FlightAware
12:14AM 37.9570 -86.6060 166° South 447 514 37,000  Level FlightAware
12:15AM 37.8660 -86.5760 165° South 441 507 37,000  Level FlightAware
12:15AM 37.7870 -86.5500 165° South 437 503 37,000  Level FlightAware
12:16AM 37.6980 -86.5210 166° South 435 501 37,000  Level FlightAware
12:17AM 37.6240 -86.4960 165° South 434 499 37,000  Level FlightAware
12:18AM 37.5340 -86.4670 166° South 434 499 37,000  Level FlightAware
12:18AM 37.4570 -86.4410 165° South 436 502 37,000  Level FlightAware
12:19AM 37.3980 -86.4220 166° South 437 503 37,000  Level FlightAware
12:19AM 37.3400 -86.4030 165° South 439 505 37,000  Level FlightAware
12:20AM 37.2600 -86.3770 165° South 436 502 37,000  Level FlightAware
12:20AM 37.1962 -86.3565 166° South 433 498 37,000  Level FlightAware ADS-B
12:21AM 37.1331 -86.3359 165° South 432 497 37,000  Level FlightAware ADS-B
12:21AM 37.0704 -86.3157 166° South 430 495 37,000  Level FlightAware ADS-B
12:22AM 37.0072 -86.2954 166° South 428 493 37,000  Level FlightAware ADS-B
12:23AM 36.9485 -86.2767 166° South 428 493 37,000  Level FlightAware ADS-B
12:23AM 36.8557 -86.2469 166° South 428 493 37,000  Level FlightAware ADS-B
12:24AM 36.7940 -86.2270 166° South 428 493 37,000  Level FlightAware ADS-B
12:24AM 36.7368 -86.2085 165° South 427 491 37,000  Level FlightAware ADS-B
12:25AM 36.6792 -86.1899 165° South 427 491 37,000  Level FlightAware ADS-B
12:25AM 36.6199 -86.1709 166° South 430 495 37,000  Level FlightAware ADS-B
12:26AM 36.5603 -86.1520 166° South 431 496 37,000  Level FlightAware ADS-B
12:26AM 36.4962 -86.1315 166° South 433 498 37,000  Level FlightAware ADS-B
12:27AM 36.4307 -86.1108 166° South 433 498 37,000  Level FlightAware ADS-B
12:28AM 36.3660 -86.0900 165° South 435 501 37,000  Level FlightAware
12:28AM 36.3173 -86.0751 166° South 434 499 37,000  Level FlightAware ADS-B
12:29AM 36.2550 -86.0553 166° South 437 503 37,000  Level FlightAware ADS-B
12:29AM 36.1958 -86.0366 166° South 436 502 37,000  Level FlightAware ADS-B
12:30AM 36.1373 -86.0180 166° South 432 497 37,000  Level FlightAware ADS-B
12:30AM 36.0780 -85.9993 166° South 431 496 37,000  Level FlightAware ADS-B
12:31AM 36.0195 -85.9809 166° South 431 496 37,000  Level FlightAware ADS-B
12:31AM 35.9524 -85.9599 166° South 430 495 37,000  Level FlightAware ADS-B
12:32AM 35.8690 -85.9340 166° South 430 495 37,000  Level FlightAware
12:32AM 35.8579 -85.9303 165° South 430 495 37,000  Level FlightAware ADS-B
12:32AM 35.8000 -85.9121 166° South 430 495 37,000  Level FlightAware ADS-B
12:33AM 35.7421 -85.8940 166° South 430 495 37,000  Level FlightAware ADS-B
12:33AM 35.6836 -85.8758 166° South 432 497 37,000  Level FlightAware ADS-B
12:34AM 35.6253 -85.8577 166° South 434 499 37,000  Level FlightAware ADS-B
12:34AM 35.5661 -85.8393 166° South 437 503 37,000  Level FlightAware ADS-B
12:35AM 35.5071 -85.8210 166° South 438 504 37,000  Level FlightAware ADS-B
12:35AM 35.4473 -85.8024 166° South 439 505 37,000  Level FlightAware ADS-B
12:36AM 35.3878 -85.7840 166° South 441 507 37,000  Level FlightAware ADS-B
12:36AM 35.3278 -85.7654 166° South 442 509 37,000  Level FlightAware ADS-B
12:37AM 35.2670 -85.7467 166° South 444 511 37,000  Level FlightAware ADS-B
12:38AM 35.1995 -85.7260 166° South 443 510 37,000  Level FlightAware ADS-B
12:38AM 35.1393 -85.7075 166° South 442 509 37,000  Level FlightAware ADS-B
12:39AM 35.0791 -85.6891 166° South 441 507 37,000  Level FlightAware ADS-B
12:39AM 35.0189 -85.6706 166° South 441 507 37,000  Level FlightAware ADS-B
12:40AM 34.9593 -85.6522 166° South 441 507 37,000  Level FlightAware ADS-B
12:40AM 34.8954 -85.6326 166° South 442 509 37,000  Level FlightAware ADS-B
12:41AM 34.8346 -85.6142 166° South 443 510 37,000  Level FlightAware ADS-B
12:41AM 34.7735 -85.5956 166° South 443 510 37,000  Level FlightAware ADS-B
12:42AM 34.7060 -85.5751 166° South 443 510 37,000  Level FlightAware ADS-B
12:42AM 34.6458 -85.5568 166° South 443 510 37,000  Level FlightAware ADS-B
12:43AM 34.5856 -85.5385 166° South 443 510 37,000  Level FlightAware ADS-B
12:43AM 34.5239 -85.5198 166° South 443 510 37,000  Level FlightAware ADS-B
12:45AM 34.3540 -85.4690 166° South 445 512 37,000  Level FlightAware
12:45AM 34.3350 -85.4629 165° South 445 512 37,000  Level FlightAware ADS-B
12:45AM 34.2681 -85.4428 166° South 446 513 37,000  Level FlightAware ADS-B
12:46AM 34.2081 -85.4249 166° South 446 513 37,000  Level FlightAware ADS-B
12:46AM 34.1478 -85.4067 166° South 446 513 37,000  Level FlightAware ADS-B
12:47AM 34.0869 -85.3884 166° South 446 513 37,000  Level FlightAware ADS-B
12:47AM 34.0256 -85.3701 166° South 448 516 37,000  Level FlightAware ADS-B
12:48AM 33.9632 -85.3515 166° South 449 517 37,000  Level FlightAware ADS-B
12:48AM 33.8968 -85.3318 166° South 449 517 37,000  Level FlightAware ADS-B
12:49AM 33.8236 -85.3099 166° South 450 518 37,000  Level FlightAware ADS-B
12:50AM 33.7710 -85.2940 166° South 450 518 37,000  Level FlightAware
12:50AM 33.6800 -85.2670 166° South 449 517 37,000  Level FlightAware
12:51AM 33.6010 -85.2440 166° South 449 517 37,000  Level FlightAware
12:52AM 33.5090 -85.2170 166° South 449 517 37,000  Level FlightAware
12:52AM 33.4330 -85.1940 166° South 448 516 37,000  Level FlightAware
12:53AM 33.3570 -85.1720 166° South 448 516 37,000 60 Level FlightAware
12:59AM 32.6700 -84.9710 166° South 463 533 37,400 180 Climbing FlightAware
12:59AM 32.5950 -84.9500 167° South 464 534 38,100 900 Climbing FlightAware
01:00AM 32.5110 -84.9250 166° South 465 535 38,500 600 Climbing FlightAware
01:00AM 32.4290 -84.9020 167° South 466 536 38,900 240 Climbing FlightAware
01:01AM 32.3480 -84.8780 166° South 466 536 38,900 60 Level FlightAware
01:02AM 32.2680 -84.8560 167° South 463 533 39,000 60 Climbing FlightAware
01:03AM 32.1810 -84.8300 166° South 463 533 39,000  Level FlightAware
01:03AM 32.0930 -84.8040 166° South 463 533 39,000  Level FlightAware
01:04AM 32.0220 -84.7840 167° South 463 533 39,000  Level FlightAware
01:05AM 31.9520 -84.7630 166° South 463 533 39,000  Level FlightAware
01:05AM 31.8810 -84.7420 166° South 463 533 39,000  Level FlightAware
01:06AM 31.8100 -84.7210 166° South 463 533 39,000  Level FlightAware
01:07AM 31.7220 -84.6950 166° South 463 533 39,000  Level FlightAware
01:08AM 31.6510 -84.6750 167° South 463 533 39,000  Level FlightAware
01:08AM 31.5810 -84.6540 166° South 463 533 39,000  Level FlightAware
01:09AM 31.5100 -84.6330 166° South 463 533 39,000  Level FlightAware
01:10AM 31.4220 -84.6080 166° South 463 533 39,000  Level FlightAware
01:10AM 31.3510 -84.5870 166° South 463 533 39,000  Level FlightAware
01:11AM 31.2800 -84.5660 166° South 463 533 39,000  Level FlightAware
01:12AM 31.2100 -84.5460 166° South 463 533 39,000  Level FlightAware
01:13AM 30.9460 -84.1160 126° Southeast 39,000  Level FlightAware
01:14AM 30.9040 -84.0800 144° Southeast 469 540 39,000  Level FlightAware
01:14AM 30.8300 -84.0170 144° Southeast 469 540 39,000  Level FlightAware
01:15AM 30.7420 -83.9410 143° Southeast 468 539 39,000  Level FlightAware
01:16AM 30.6720 -83.8810 144° Southeast 468 539 39,000  Level FlightAware
01:17AM 30.5830 -83.8050 144° Southeast 468 539 39,000  Level FlightAware
01:17AM 30.5180 -83.7490 143° Southeast 462 532 39,000  Level FlightAware
01:18AM 30.4470 -83.6880 143° Southeast 464 534 39,000  Level FlightAware
01:19AM 30.3680 -83.6210 144° Southeast 466 536 39,000  Level FlightAware
01:19AM 30.2960 -83.5600 144° Southeast 467 537 39,000  Level FlightAware
01:20AM 30.2170 -83.4930 144° Southeast 474 545 39,000  Level FlightAware
01:21AM 30.1460 -83.4330 144° Southeast 475 547 39,000  Level FlightAware
01:22AM 30.0780 -83.3760 144° Southeast 475 547 39,000  Level FlightAware
01:22AM 29.9960 -83.3070 144° Southeast 475 547 39,000  Level FlightAware
01:23AM 29.9240 -83.2460 144° Southeast 475 547 39,000  Level FlightAware
01:24AM 29.8450 -83.1790 144° Southeast 475 547 39,000  Level FlightAware
01:24AM 29.7840 -83.1280 144° Southeast 475 547 39,000  Level FlightAware
01:25AM 29.7120 -83.0660 143° Southeast 475 547 39,000  Level FlightAware
01:26AM 29.6230 -82.9940 145° Southeast 476 548 39,000  Level FlightAware
01:26AM 29.5510 -82.9340 144° Southeast 476 548 39,000  Level FlightAware
01:27AM 29.4710 -82.8670 144° Southeast 476 548 39,000  Level FlightAware
01:28AM 29.4010 -82.8080 144° Southeast 476 548 39,000  Level FlightAware
01:29AM 29.3300 -82.7490 144° Southeast 476 548 39,000  Level FlightAware
01:29AM 29.2420 -82.6770 144° Southeast 477 549 39,000  Level FlightAware
01:30AM 29.1810 -82.6270 144° Southeast 476 548 39,000  Level FlightAware
01:31AM 29.0990 -82.5590 144° Southeast 476 548 39,000  Level FlightAware
01:31AM 29.0190 -82.4940 145° Southeast 476 548 39,000  Level FlightAware
01:32AM 28.9460 -82.4340 144° Southeast 476 548 39,000  Level FlightAware
01:33AM 28.8760 -82.3760 144° Southeast 476 548 39,000  Level FlightAware
01:33AM 28.7960 -82.3110 145° Southeast 474 545 39,000  Level FlightAware
01:34AM 28.7240 -82.2520 144° Southeast 472 543 39,000  Level FlightAware
01:35AM 28.6520 -82.1930 144° Southeast 471 542 39,000  Level FlightAware
01:36AM 28.5720 -82.1280 144° Southeast 470 541 39,000  Level FlightAware
01:36AM 28.4950 -82.0660 145° Southeast 470 541 39,000  Level FlightAware
01:37AM 28.4230 -82.0070 144° Southeast 470 541 39,000  Level FlightAware
01:38AM 28.3440 -81.9430 145° Southeast 470 541 39,000  Level FlightAware
01:38AM 28.2740 -81.8860 144° Southeast 469 540 39,000  Level FlightAware
01:39AM 28.1990 -81.8260 145° Southeast 470 541 39,000  Level FlightAware
01:40AM 28.1210 -81.7640 145° Southeast 471 542 39,000  Level FlightAware
01:40AM 28.0500 -81.7060 144° Southeast 472 543 39,000  Level FlightAware
01:41AM 27.9780 -81.6490 145° Southeast 473 544 39,000  Level FlightAware
01:42AM 27.8970 -81.5840 145° Southeast 473 544 39,000 -540 Level FlightAware
01:43AM 27.8250 -81.5260 145° Southeast 472 543 38,300 -1,020 Descending FlightAware
01:43AM 27.7570 -81.4710 144° Southeast 465 535 37,700 -960 Descending FlightAware
01:44AM 27.6780 -81.4080 145° Southeast 457 526 37,000 -1,320 Descending FlightAware
01:45AM 27.6100 -81.3550 145° Southeast 443 510 35,900 -2,340 Descending FlightAware
01:45AM 27.5320 -81.2930 145° Southeast 447 514 33,700 -2,880 Descending FlightAware
01:46AM 27.4660 -81.2410 145° Southeast 455 524 31,900 -2,700 Descending FlightAware
01:47AM 27.3870 -81.1780 145° Southeast 467 537 29,900 -2,580 Descending FlightAware
01:47AM 27.3170 -81.1230 145° Southeast 461 531 28,300 -2,400 Descending FlightAware
01:48AM 27.2470 -81.0670 145° Southeast 455 524 26,700 -2,400 Descending FlightAware
01:49AM 27.1680 -81.0050 145° Southeast 447 514 24,900 -2,340 Descending FlightAware
01:50AM 27.1040 -80.9550 145° Southeast 441 507 23,400 -2,220 Descending FlightAware
01:50AM 27.0340 -80.9000 145° Southeast 435 501 21,800 -2,160 Descending FlightAware
01:51AM 26.9680 -80.8480 145° Southeast 419 482 20,400 -2,040 Descending FlightAware
01:52AM 26.9040 -80.7970 145° Southeast 412 474 19,100 -1,980 Descending FlightAware
01:52AM 26.8320 -80.7410 145° Southeast 394 453 17,600 -2,160 Descending FlightAware
01:53AM 26.7730 -80.6950 145° Southeast 379 436 16,100 -2,220 Descending FlightAware
01:54AM 26.7090 -80.6450 145° Southeast 376 433 14,500 -2,100 Descending FlightAware
01:54AM 26.6520 -80.6010 145° Southeast 357 411 13,200 -2,100 Descending FlightAware
01:55AM 26.5980 -80.5590 145° Southeast 357 411 11,700 -1,680 Descending FlightAware
01:56AM 26.5370 -80.5110 145° Southeast 338 389 10,900 -600 Descending FlightAware
01:57AM 26.4850 -80.4710 145° Southeast 335 386 10,900 -480 Level FlightAware
01:57AM 26.4310 -80.4290 145° Southeast 295 339 10,300 -1,080 Descending FlightAware
01:58AM 26.4040 -80.4080 145° Southeast 283 326 9,700 -1,680 Descending FlightAware
01:58AM 26.3700 -80.3820 146° Southeast 277 319 8,800 -1,980 Descending FlightAware
01:59AM 26.3450 -80.3630 146° Southeast 277 319 7,900 -2,100 Descending FlightAware
01:59AM 26.3270 -80.3490 145° Southeast 281 323 7,400 -1,920 Descending FlightAware
01:59AM 26.2940 -80.3230 145° Southeast 275 316 6,500 -1,320 Descending FlightAware
02:00AM 26.2690 -80.3040 146° Southeast 257 296 6,200 -1,200 Descending FlightAware
02:00AM 26.2400 -80.2820 146° Southeast 243 280 5,400 -1,740 Descending FlightAware
02:01AM 26.2240 -80.2780 167° South 240 276 4,900 -1,980 Descending FlightAware
02:01AM 26.1960 -80.2750 175° South 214 246 4,100 -1,800 Descending FlightAware
02:01AM 26.1670 -80.2730 176° South 193 222 3,300 -1,500 Descending FlightAware
02:02AM 26.1550 -80.2780 201° Southwest 195 224 3,000 -1,620 Descending FlightAware
02:02AM 26.1440 -80.2880 219° Southwest 192 221 2,500 -1,680 Descending FlightAware
02:02AM 26.1290 -80.3060 227° Southwest 194 223 1,900 -900 Descending FlightAware
02:03AM 26.1220 -80.3190 239° Southwest 194 223 1,900  Level FlightAware
02:03AM 26.1130 -80.3300 228° Southwest 194 223 1,900  Level FlightAware
02:03AM 26.1050 -80.3340 204° Southwest 189 217 1,900  Level FlightAware
02:04AM 26.0840 -80.3230 155° Southeast 163 188 1,900 -180 Level FlightAware
02:05AM 26.0780 -80.2650 97° East 163 188 1,600 -540 Descending FlightAware
02:06AM 26.0770 -80.2110 91° East 143 165 700 -600 Descending FlightAware
02:07AM 26.0770 -80.1650 90° East 141 162 200 -480 Descending FlightAware